sensor_id;sensor_type;location;lat;lon;timestamp;P1;durP1;ratioP1;P2;durP2;ratioP2
35496;SDS011;21609;49.298;6.844;2022-10-10T00:02:07;1.48;;;1.08;;
35496;SDS011;21609;49.298;6.844;2022-10-10T00:04:33;1.75;;;1.55;;
35496;SDS011;21609;49.298;6.844;2022-10-10T00:06:58;1.23;;;1.08;;
35496;SDS011;21609;49.298;6.844;2022-10-10T00:09:24;1.08;;;0.98;;
35496;SDS011;21609;49.298;6.844;2022-10-10T00:11:49;2.80;;;1.85;;
35496;SDS011;21609;49.298;6.844;2022-10-10T00:14:15;1.40;;;1.27;;
35496;SDS011;21609;49.298;6.844;2022-10-10T00:16:41;2.10;;;1.13;;
35496;SDS011;21609;49.298;6.844;2022-10-10T00:19:06;1.40;;;1.27;;
35496;SDS011;21609;49.298;6.844;2022-10-10T00:21:32;1.60;;;1.40;;
35496;SDS011;21609;49.298;6.844;2022-10-10T00:23:57;1.45;;;1.35;;
35496;SDS011;21609;49.298;6.844;2022-10-10T00:26:24;1.77;;;1.33;;
35496;SDS011;21609;49.298;6.844;2022-10-10T00:28:50;1.38;;;1.23;;
35496;SDS011;21609;49.298;6.844;2022-10-10T00:31:16;1.27;;;1.17;;
35496;SDS011;21609;49.298;6.844;2022-10-10T00:33:42;1.83;;;1.40;;
35496;SDS011;21609;49.298;6.844;2022-10-10T00:36:08;1.75;;;1.20;;
35496;SDS011;21609;49.298;6.844;2022-10-10T00:38:33;1.67;;;1.23;;
35496;SDS011;21609;49.298;6.844;2022-10-10T00:40:59;2.10;;;1.40;;
35496;SDS011;21609;49.298;6.844;2022-10-10T00:43:26;1.70;;;1.23;;
35496;SDS011;21609;49.298;6.844;2022-10-10T00:45:55;1.73;;;1.42;;
35496;SDS011;21609;49.298;6.844;2022-10-10T00:48:29;1.90;;;1.20;;
35496;SDS011;21609;49.298;6.844;2022-10-10T00:53:45;1.15;;;1.05;;
35496;SDS011;21609;49.298;6.844;2022-10-10T00:56:11;2.60;;;1.73;;
35496;SDS011;21609;49.298;6.844;2022-10-10T00:58:42;1.40;;;1.30;;
35496;SDS011;21609;49.298;6.844;2022-10-10T01:03:37;1.40;;;1.30;;
35496;SDS011;21609;49.298;6.844;2022-10-10T01:06:02;1.95;;;1.67;;
35496;SDS011;21609;49.298;6.844;2022-10-10T01:08:29;1.60;;;1.40;;
35496;SDS011;21609;49.298;6.844;2022-10-10T01:24:54;1.83;;;1.25;;
35496;SDS011;21609;49.298;6.844;2022-10-10T01:30:29;2.85;;;1.38;;
35496;SDS011;21609;49.298;6.844;2022-10-10T01:32:57;1.30;;;1.02;;
35496;SDS011;21609;49.298;6.844;2022-10-10T01:38:04;1.27;;;1.17;;
35496;SDS011;21609;49.298;6.844;2022-10-10T01:40:52;1.70;;;1.38;;
35496;SDS011;21609;49.298;6.844;2022-10-10T01:43:23;1.83;;;1.67;;
35496;SDS011;21609;49.298;6.844;2022-10-10T01:45:50;1.60;;;1.42;;
35496;SDS011;21609;49.298;6.844;2022-10-10T01:48:22;1.60;;;1.33;;
35496;SDS011;21609;49.298;6.844;2022-10-10T01:51:13;1.48;;;1.38;;
35496;SDS011;21609;49.298;6.844;2022-10-10T01:57:12;1.45;;;1.35;;
35496;SDS011;21609;49.298;6.844;2022-10-10T01:59:56;2.58;;;1.40;;
35496;SDS011;21609;49.298;6.844;2022-10-10T02:05:55;1.30;;;1.20;;
35496;SDS011;21609;49.298;6.844;2022-10-10T02:08:22;1.52;;;1.20;;
35496;SDS011;21609;49.298;6.844;2022-10-10T02:10:59;1.60;;;1.50;;
35496;SDS011;21609;49.298;6.844;2022-10-10T02:13:33;1.50;;;1.40;;
35496;SDS011;21609;49.298;6.844;2022-10-10T02:16:05;1.13;;;1.02;;
35496;SDS011;21609;49.298;6.844;2022-10-10T02:18:37;1.65;;;1.27;;
35496;SDS011;21609;49.298;6.844;2022-10-10T02:21:03;2.42;;;1.90;;
35496;SDS011;21609;49.298;6.844;2022-10-10T02:23:32;1.60;;;1.50;;
35496;SDS011;21609;49.298;6.844;2022-10-10T02:25:59;1.63;;;1.50;;
35496;SDS011;21609;49.298;6.844;2022-10-10T02:28:35;2.22;;;1.45;;
35496;SDS011;21609;49.298;6.844;2022-10-10T02:31:05;2.15;;;1.40;;
35496;SDS011;21609;49.298;6.844;2022-10-10T02:33:40;1.13;;;1.02;;
35496;SDS011;21609;49.298;6.844;2022-10-10T02:36:26;0.98;;;0.98;;
35496;SDS011;21609;49.298;6.844;2022-10-10T02:38:53;1.38;;;1.10;;
35496;SDS011;21609;49.298;6.844;2022-10-10T02:41:19;1.60;;;1.50;;
35496;SDS011;21609;49.298;6.844;2022-10-10T02:43:46;1.33;;;1.20;;
35496;SDS011;21609;49.298;6.844;2022-10-10T02:46:14;1.17;;;1.08;;
35496;SDS011;21609;49.298;6.844;2022-10-10T02:48:40;1.13;;;1.02;;
35496;SDS011;21609;49.298;6.844;2022-10-10T02:51:07;2.08;;;1.58;;
35496;SDS011;21609;49.298;6.844;2022-10-10T02:53:33;1.38;;;1.25;;
35496;SDS011;21609;49.298;6.844;2022-10-10T02:56:01;1.58;;;1.20;;
35496;SDS011;21609;49.298;6.844;2022-10-10T02:58:27;1.60;;;1.50;;
35496;SDS011;21609;49.298;6.844;2022-10-10T03:00:53;1.40;;;1.30;;
35496;SDS011;21609;49.298;6.844;2022-10-10T03:03:18;1.42;;;1.33;;
35496;SDS011;21609;49.298;6.844;2022-10-10T03:05:44;2.80;;;1.35;;
35496;SDS011;21609;49.298;6.844;2022-10-10T03:08:09;1.00;;;1.00;;
35496;SDS011;21609;49.298;6.844;2022-10-10T03:10:35;1.58;;;1.40;;
35496;SDS011;21609;49.298;6.844;2022-10-10T03:13:01;1.13;;;1.02;;
35496;SDS011;21609;49.298;6.844;2022-10-10T03:15:26;1.25;;;1.13;;
35496;SDS011;21609;49.298;6.844;2022-10-10T03:17:52;1.50;;;1.13;;
35496;SDS011;21609;49.298;6.844;2022-10-10T03:20:17;1.38;;;1.27;;
35496;SDS011;21609;49.298;6.844;2022-10-10T03:22:43;1.27;;;1.13;;
35496;SDS011;21609;49.298;6.844;2022-10-10T03:25:08;1.25;;;1.15;;
35496;SDS011;21609;49.298;6.844;2022-10-10T03:27:34;1.10;;;1.00;;
35496;SDS011;21609;49.298;6.844;2022-10-10T03:30:00;2.28;;;1.55;;
35496;SDS011;21609;49.298;6.844;2022-10-10T03:32:26;1.13;;;1.00;;
35496;SDS011;21609;49.298;6.844;2022-10-10T03:34:52;1.15;;;1.05;;
35496;SDS011;21609;49.298;6.844;2022-10-10T03:37:17;1.30;;;1.20;;
35496;SDS011;21609;49.298;6.844;2022-10-10T03:39:43;1.95;;;1.70;;
35496;SDS011;21609;49.298;6.844;2022-10-10T03:42:09;1.50;;;1.40;;
35496;SDS011;21609;49.298;6.844;2022-10-10T03:44:34;1.17;;;1.08;;
35496;SDS011;21609;49.298;6.844;2022-10-10T03:47:00;1.25;;;1.15;;
35496;SDS011;21609;49.298;6.844;2022-10-10T03:49:25;1.25;;;1.13;;
35496;SDS011;21609;49.298;6.844;2022-10-10T03:51:51;1.45;;;1.35;;
35496;SDS011;21609;49.298;6.844;2022-10-10T03:54:17;1.70;;;1.17;;
35496;SDS011;21609;49.298;6.844;2022-10-10T03:56:43;1.40;;;1.25;;
35496;SDS011;21609;49.298;6.844;2022-10-10T03:59:08;1.48;;;1.38;;
35496;SDS011;21609;49.298;6.844;2022-10-10T04:01:34;1.35;;;1.15;;
35496;SDS011;21609;49.298;6.844;2022-10-10T04:03:59;1.30;;;1.10;;
35496;SDS011;21609;49.298;6.844;2022-10-10T04:06:25;1.20;;;0.98;;
35496;SDS011;21609;49.298;6.844;2022-10-10T04:08:52;1.55;;;1.45;;
35496;SDS011;21609;49.298;6.844;2022-10-10T04:11:17;1.30;;;1.20;;
35496;SDS011;21609;49.298;6.844;2022-10-10T04:13:43;1.40;;;1.30;;
35496;SDS011;21609;49.298;6.844;2022-10-10T04:16:09;1.40;;;1.23;;
35496;SDS011;21609;49.298;6.844;2022-10-10T04:18:35;1.10;;;1.00;;
35496;SDS011;21609;49.298;6.844;2022-10-10T04:21:01;1.27;;;1.10;;
35496;SDS011;21609;49.298;6.844;2022-10-10T04:23:28;1.00;;;0.80;;
35496;SDS011;21609;49.298;6.844;2022-10-10T04:25:53;1.83;;;1.40;;
35496;SDS011;21609;49.298;6.844;2022-10-10T04:28:19;1.08;;;0.98;;
35496;SDS011;21609;49.298;6.844;2022-10-10T04:30:45;1.08;;;1.00;;
35496;SDS011;21609;49.298;6.844;2022-10-10T04:33:10;1.15;;;1.02;;
35496;SDS011;21609;49.298;6.844;2022-10-10T04:35:36;1.63;;;1.15;;
35496;SDS011;21609;49.298;6.844;2022-10-10T04:38:03;1.27;;;1.17;;
35496;SDS011;21609;49.298;6.844;2022-10-10T04:40:29;1.38;;;1.27;;
35496;SDS011;21609;49.298;6.844;2022-10-10T04:42:54;1.50;;;1.30;;
35496;SDS011;21609;49.298;6.844;2022-10-10T04:45:20;1.38;;;0.95;;
35496;SDS011;21609;49.298;6.844;2022-10-10T04:47:50;1.65;;;1.25;;
35496;SDS011;21609;49.298;6.844;2022-10-10T04:50:16;1.10;;;1.00;;
35496;SDS011;21609;49.298;6.844;2022-10-10T04:52:42;1.50;;;1.40;;
35496;SDS011;21609;49.298;6.844;2022-10-10T04:55:07;1.27;;;1.10;;
35496;SDS011;21609;49.298;6.844;2022-10-10T04:57:33;0.93;;;0.90;;
35496;SDS011;21609;49.298;6.844;2022-10-10T04:59:59;1.23;;;1.13;;
35496;SDS011;21609;49.298;6.844;2022-10-10T05:02:24;1.27;;;1.17;;
35496;SDS011;21609;49.298;6.844;2022-10-10T05:04:50;1.10;;;1.00;;
35496;SDS011;21609;49.298;6.844;2022-10-10T05:07:15;2.00;;;1.38;;
35496;SDS011;21609;49.298;6.844;2022-10-10T05:09:41;1.75;;;1.10;;
35496;SDS011;21609;49.298;6.844;2022-10-10T05:12:06;1.42;;;1.02;;
35496;SDS011;21609;49.298;6.844;2022-10-10T05:14:32;1.48;;;1.20;;
35496;SDS011;21609;49.298;6.844;2022-10-10T05:16:57;1.90;;;0.90;;
35496;SDS011;21609;49.298;6.844;2022-10-10T05:19:23;0.80;;;0.80;;
35496;SDS011;21609;49.298;6.844;2022-10-10T05:21:48;1.17;;;0.98;;
35496;SDS011;21609;49.298;6.844;2022-10-10T05:24:14;1.38;;;1.27;;
35496;SDS011;21609;49.298;6.844;2022-10-10T05:26:40;1.23;;;1.10;;
35496;SDS011;21609;49.298;6.844;2022-10-10T05:29:05;1.05;;;0.98;;
35496;SDS011;21609;49.298;6.844;2022-10-10T05:31:31;1.50;;;1.23;;
35496;SDS011;21609;49.298;6.844;2022-10-10T05:33:57;1.45;;;1.20;;
35496;SDS011;21609;49.298;6.844;2022-10-10T05:36:23;1.10;;;0.95;;
35496;SDS011;21609;49.298;6.844;2022-10-10T05:38:48;1.20;;;1.10;;
35496;SDS011;21609;49.298;6.844;2022-10-10T05:41:14;1.20;;;1.10;;
35496;SDS011;21609;49.298;6.844;2022-10-10T05:43:40;1.30;;;1.15;;
35496;SDS011;21609;49.298;6.844;2022-10-10T05:46:06;1.77;;;1.30;;
35496;SDS011;21609;49.298;6.844;2022-10-10T05:48:31;1.33;;;1.05;;
35496;SDS011;21609;49.298;6.844;2022-10-10T05:50:57;1.65;;;1.08;;
35496;SDS011;21609;49.298;6.844;2022-10-10T05:53:25;1.88;;;1.58;;
35496;SDS011;21609;49.298;6.844;2022-10-10T05:55:52;1.33;;;1.05;;
35496;SDS011;21609;49.298;6.844;2022-10-10T05:58:18;1.13;;;1.05;;
35496;SDS011;21609;49.298;6.844;2022-10-10T06:00:44;1.48;;;1.35;;
35496;SDS011;21609;49.298;6.844;2022-10-10T06:03:11;1.23;;;1.15;;
35496;SDS011;21609;49.298;6.844;2022-10-10T06:05:40;1.30;;;1.20;;
35496;SDS011;21609;49.298;6.844;2022-10-10T06:08:06;1.33;;;1.23;;
35496;SDS011;21609;49.298;6.844;2022-10-10T06:10:36;1.38;;;1.27;;
35496;SDS011;21609;49.298;6.844;2022-10-10T06:13:02;1.73;;;1.45;;
35496;SDS011;21609;49.298;6.844;2022-10-10T06:15:28;1.45;;;1.35;;
35496;SDS011;21609;49.298;6.844;2022-10-10T06:17:54;1.20;;;1.10;;
35496;SDS011;21609;49.298;6.844;2022-10-10T06:20:19;1.42;;;1.33;;
35496;SDS011;21609;49.298;6.844;2022-10-10T06:22:45;1.17;;;1.10;;
35496;SDS011;21609;49.298;6.844;2022-10-10T06:25:10;1.42;;;1.23;;
35496;SDS011;21609;49.298;6.844;2022-10-10T06:27:36;3.20;;;1.00;;
35496;SDS011;21609;49.298;6.844;2022-10-10T06:30:02;1.30;;;1.17;;
35496;SDS011;21609;49.298;6.844;2022-10-10T06:32:29;3.00;;;1.10;;
35496;SDS011;21609;49.298;6.844;2022-10-10T06:34:54;1.40;;;1.30;;
35496;SDS011;21609;49.298;6.844;2022-10-10T06:37:20;0.82;;;0.82;;
35496;SDS011;21609;49.298;6.844;2022-10-10T06:39:46;1.08;;;0.98;;
35496;SDS011;21609;49.298;6.844;2022-10-10T06:42:11;0.88;;;0.80;;
35496;SDS011;21609;49.298;6.844;2022-10-10T06:44:37;1.20;;;1.10;;
35496;SDS011;21609;49.298;6.844;2022-10-10T06:47:02;0.93;;;0.90;;
35496;SDS011;21609;49.298;6.844;2022-10-10T06:49:28;1.67;;;1.35;;
35496;SDS011;21609;49.298;6.844;2022-10-10T06:51:54;1.15;;;1.05;;
35496;SDS011;21609;49.298;6.844;2022-10-10T06:54:19;3.38;;;1.17;;
35496;SDS011;21609;49.298;6.844;2022-10-10T06:56:45;1.73;;;1.40;;
35496;SDS011;21609;49.298;6.844;2022-10-10T06:59:11;1.20;;;1.10;;
35496;SDS011;21609;49.298;6.844;2022-10-10T07:01:36;1.40;;;1.00;;
35496;SDS011;21609;49.298;6.844;2022-10-10T07:04:02;1.35;;;1.20;;
35496;SDS011;21609;49.298;6.844;2022-10-10T07:06:28;1.45;;;1.30;;
35496;SDS011;21609;49.298;6.844;2022-10-10T07:08:53;1.67;;;1.58;;
35496;SDS011;21609;49.298;6.844;2022-10-10T07:11:19;1.67;;;1.48;;
35496;SDS011;21609;49.298;6.844;2022-10-10T07:13:44;3.72;;;1.42;;
35496;SDS011;21609;49.298;6.844;2022-10-10T07:16:10;1.77;;;1.48;;
35496;SDS011;21609;49.298;6.844;2022-10-10T07:18:36;2.65;;;1.52;;
35496;SDS011;21609;49.298;6.844;2022-10-10T07:21:02;2.55;;;1.50;;
35496;SDS011;21609;49.298;6.844;2022-10-10T07:23:28;1.75;;;1.65;;
35496;SDS011;21609;49.298;6.844;2022-10-10T07:25:59;1.73;;;1.52;;
35496;SDS011;21609;49.298;6.844;2022-10-10T07:28:26;1.80;;;1.60;;
35496;SDS011;21609;49.298;6.844;2022-10-10T07:30:57;4.90;;;1.63;;
35496;SDS011;21609;49.298;6.844;2022-10-10T07:33:24;2.95;;;1.90;;
35496;SDS011;21609;49.298;6.844;2022-10-10T07:35:53;1.20;;;1.10;;
35496;SDS011;21609;49.298;6.844;2022-10-10T07:38:19;1.50;;;1.17;;
35496;SDS011;21609;49.298;6.844;2022-10-10T07:40:44;1.92;;;1.75;;
35496;SDS011;21609;49.298;6.844;2022-10-10T07:43:10;2.33;;;1.35;;
35496;SDS011;21609;49.298;6.844;2022-10-10T07:45:35;8.20;;;1.95;;
35496;SDS011;21609;49.298;6.844;2022-10-10T07:48:01;1.35;;;1.25;;
35496;SDS011;21609;49.298;6.844;2022-10-10T07:50:27;4.43;;;1.92;;
35496;SDS011;21609;49.298;6.844;2022-10-10T07:52:53;2.70;;;1.48;;
35496;SDS011;21609;49.298;6.844;2022-10-10T07:55:18;1.55;;;1.38;;
35496;SDS011;21609;49.298;6.844;2022-10-10T07:57:44;1.33;;;1.23;;
35496;SDS011;21609;49.298;6.844;2022-10-10T08:00:10;3.15;;;1.83;;
35496;SDS011;21609;49.298;6.844;2022-10-10T08:02:36;2.17;;;1.50;;
35496;SDS011;21609;49.298;6.844;2022-10-10T08:05:01;2.42;;;1.55;;
35496;SDS011;21609;49.298;6.844;2022-10-10T08:07:27;1.92;;;1.52;;
35496;SDS011;21609;49.298;6.844;2022-10-10T08:09:53;2.42;;;1.38;;
35496;SDS011;21609;49.298;6.844;2022-10-10T08:12:18;7.40;;;1.50;;
35496;SDS011;21609;49.298;6.844;2022-10-10T08:14:44;2.00;;;1.38;;
35496;SDS011;21609;49.298;6.844;2022-10-10T08:17:09;2.08;;;1.83;;
35496;SDS011;21609;49.298;6.844;2022-10-10T08:19:35;2.25;;;1.67;;
35496;SDS011;21609;49.298;6.844;2022-10-10T08:22:01;2.63;;;1.70;;
35496;SDS011;21609;49.298;6.844;2022-10-10T08:24:26;1.73;;;1.63;;
35496;SDS011;21609;49.298;6.844;2022-10-10T08:26:52;1.77;;;1.67;;
35496;SDS011;21609;49.298;6.844;2022-10-10T08:29:17;1.50;;;1.20;;
35496;SDS011;21609;49.298;6.844;2022-10-10T08:31:43;2.30;;;2.00;;
35496;SDS011;21609;49.298;6.844;2022-10-10T08:34:09;5.72;;;1.65;;
35496;SDS011;21609;49.298;6.844;2022-10-10T08:36:34;2.63;;;1.75;;
35496;SDS011;21609;49.298;6.844;2022-10-10T08:39:00;3.03;;;1.77;;
35496;SDS011;21609;49.298;6.844;2022-10-10T08:50:09;2.72;;;1.88;;
35496;SDS011;21609;49.298;6.844;2022-10-10T08:52:47;1.65;;;1.50;;
35496;SDS011;21609;49.298;6.844;2022-10-10T08:55:27;2.47;;;2.00;;
35496;SDS011;21609;49.298;6.844;2022-10-10T08:57:58;2.97;;;2.15;;
35496;SDS011;21609;49.298;6.844;2022-10-10T09:00:39;2.50;;;2.00;;
35496;SDS011;21609;49.298;6.844;2022-10-10T09:06:24;3.15;;;1.58;;
35496;SDS011;21609;49.298;6.844;2022-10-10T09:15:02;5.40;;;2.00;;
35496;SDS011;21609;49.298;6.844;2022-10-10T09:23:06;4.22;;;2.20;;
35496;SDS011;21609;49.298;6.844;2022-10-10T09:25:45;3.17;;;1.45;;
35496;SDS011;21609;49.298;6.844;2022-10-10T09:33:45;3.05;;;1.75;;
35496;SDS011;21609;49.298;6.844;2022-10-10T09:36:19;2.75;;;1.70;;
35496;SDS011;21609;49.298;6.844;2022-10-10T09:38:52;5.32;;;2.00;;
35496;SDS011;21609;49.298;6.844;2022-10-10T09:43:52;2.40;;;2.20;;
35496;SDS011;21609;49.298;6.844;2022-10-10T09:46:20;5.72;;;2.28;;
35496;SDS011;21609;49.298;6.844;2022-10-10T09:48:46;3.33;;;1.33;;
35496;SDS011;21609;49.298;6.844;2022-10-10T09:51:12;2.13;;;1.92;;
35496;SDS011;21609;49.298;6.844;2022-10-10T09:53:40;5.97;;;2.22;;
35496;SDS011;21609;49.298;6.844;2022-10-10T09:56:07;2.53;;;1.90;;
35496;SDS011;21609;49.298;6.844;2022-10-10T09:58:43;4.65;;;1.92;;
35496;SDS011;21609;49.298;6.844;2022-10-10T10:01:15;3.30;;;1.55;;
35496;SDS011;21609;49.298;6.844;2022-10-10T10:03:41;3.03;;;1.83;;
35496;SDS011;21609;49.298;6.844;2022-10-10T10:06:11;1.75;;;1.65;;
35496;SDS011;21609;49.298;6.844;2022-10-10T10:08:39;5.20;;;1.85;;
35496;SDS011;21609;49.298;6.844;2022-10-10T10:11:26;2.78;;;1.75;;
35496;SDS011;21609;49.298;6.844;2022-10-10T10:13:55;1.60;;;1.48;;
35496;SDS011;21609;49.298;6.844;2022-10-10T10:16:28;3.30;;;1.70;;
35496;SDS011;21609;49.298;6.844;2022-10-10T10:19:00;4.22;;;2.00;;
35496;SDS011;21609;49.298;6.844;2022-10-10T10:21:26;6.53;;;2.33;;
35496;SDS011;21609;49.298;6.844;2022-10-10T10:23:54;3.00;;;1.80;;
35496;SDS011;21609;49.298;6.844;2022-10-10T10:26:29;1.83;;;1.67;;
35496;SDS011;21609;49.298;6.844;2022-10-10T10:29:29;2.05;;;1.85;;
35496;SDS011;21609;49.298;6.844;2022-10-10T10:37:20;6.50;;;1.77;;
35496;SDS011;21609;49.298;6.844;2022-10-10T10:45:33;2.28;;;1.65;;
35496;SDS011;21609;49.298;6.844;2022-10-10T10:48:30;6.03;;;1.90;;
35496;SDS011;21609;49.298;6.844;2022-10-10T11:00:00;1.70;;;1.40;;
35496;SDS011;21609;49.298;6.844;2022-10-10T11:11:08;3.88;;;1.83;;
35496;SDS011;21609;49.298;6.844;2022-10-10T11:16:26;3.33;;;1.92;;
35496;SDS011;21609;49.298;6.844;2022-10-10T11:21:33;4.70;;;2.55;;
35496;SDS011;21609;49.298;6.844;2022-10-10T11:24:10;4.28;;;2.33;;
35496;SDS011;21609;49.298;6.844;2022-10-10T11:26:41;11.68;;;2.80;;
35496;SDS011;21609;49.298;6.844;2022-10-10T11:29:18;4.45;;;2.20;;
35496;SDS011;21609;49.298;6.844;2022-10-10T11:31:54;5.25;;;2.25;;
35496;SDS011;21609;49.298;6.844;2022-10-10T11:34:30;4.50;;;2.08;;
35496;SDS011;21609;49.298;6.844;2022-10-10T11:37:03;3.53;;;2.05;;
35496;SDS011;21609;49.298;6.844;2022-10-10T11:39:38;3.92;;;2.05;;
35496;SDS011;21609;49.298;6.844;2022-10-10T11:42:17;5.13;;;2.08;;
35496;SDS011;21609;49.298;6.844;2022-10-10T11:44:52;3.25;;;2.22;;
35496;SDS011;21609;49.298;6.844;2022-10-10T11:47:39;2.25;;;1.83;;
35496;SDS011;21609;49.298;6.844;2022-10-10T11:50:14;2.08;;;1.63;;
35496;SDS011;21609;49.298;6.844;2022-10-10T11:55:25;3.95;;;2.00;;
35496;SDS011;21609;49.298;6.844;2022-10-10T12:00:31;3.58;;;1.95;;
35496;SDS011;21609;49.298;6.844;2022-10-10T12:03:03;5.95;;;2.10;;
35496;SDS011;21609;49.298;6.844;2022-10-10T12:05:31;3.13;;;2.30;;
35496;SDS011;21609;49.298;6.844;2022-10-10T12:08:22;1.95;;;1.70;;
35496;SDS011;21609;49.298;6.844;2022-10-10T12:10:59;4.70;;;1.98;;
35496;SDS011;21609;49.298;6.844;2022-10-10T12:13:50;1.40;;;1.15;;
35496;SDS011;21609;49.298;6.844;2022-10-10T12:16:19;2.13;;;1.55;;
35496;SDS011;21609;49.298;6.844;2022-10-10T12:21:21;2.90;;;1.95;;
35496;SDS011;21609;49.298;6.844;2022-10-10T12:23:58;7.07;;;2.50;;
35496;SDS011;21609;49.298;6.844;2022-10-10T12:26:24;3.92;;;2.25;;
35496;SDS011;21609;49.298;6.844;2022-10-10T12:29:10;4.30;;;1.95;;
35496;SDS011;21609;49.298;6.844;2022-10-10T12:31:38;2.53;;;2.10;;
35496;SDS011;21609;49.298;6.844;2022-10-10T12:34:38;2.47;;;1.92;;
35496;SDS011;21609;49.298;6.844;2022-10-10T12:37:31;4.35;;;2.03;;
35496;SDS011;21609;49.298;6.844;2022-10-10T12:43:19;14.77;;;2.25;;
35496;SDS011;21609;49.298;6.844;2022-10-10T12:47:53;4.90;;;2.47;;
35496;SDS011;21609;49.298;6.844;2022-10-10T12:50:27;3.83;;;3.40;;
35496;SDS011;21609;49.298;6.844;2022-10-10T12:52:57;6.35;;;2.83;;
35496;SDS011;21609;49.298;6.844;2022-10-10T12:55:26;5.55;;;2.90;;
35496;SDS011;21609;49.298;6.844;2022-10-10T12:57:55;5.45;;;2.67;;
35496;SDS011;21609;49.298;6.844;2022-10-10T13:00:35;4.22;;;2.30;;
35496;SDS011;21609;49.298;6.844;2022-10-10T13:03:04;3.17;;;2.45;;
35496;SDS011;21609;49.298;6.844;2022-10-10T13:05:55;6.70;;;2.88;;
35496;SDS011;21609;49.298;6.844;2022-10-10T13:08:26;3.28;;;2.95;;
35496;SDS011;21609;49.298;6.844;2022-10-10T13:13:33;4.88;;;3.00;;
35496;SDS011;21609;49.298;6.844;2022-10-10T13:16:05;2.65;;;2.45;;
35496;SDS011;21609;49.298;6.844;2022-10-10T13:18:48;5.25;;;2.90;;
35496;SDS011;21609;49.298;6.844;2022-10-10T13:21:28;3.25;;;2.70;;
35496;SDS011;21609;49.298;6.844;2022-10-10T13:24:00;6.72;;;2.97;;
35496;SDS011;21609;49.298;6.844;2022-10-10T13:26:29;3.67;;;2.33;;
35496;SDS011;21609;49.298;6.844;2022-10-10T13:28:58;4.53;;;2.92;;
35496;SDS011;21609;49.298;6.844;2022-10-10T13:31:28;6.10;;;2.63;;
35496;SDS011;21609;49.298;6.844;2022-10-10T13:34:00;2.90;;;1.92;;
35496;SDS011;21609;49.298;6.844;2022-10-10T13:36:30;2.92;;;2.58;;
35496;SDS011;21609;49.298;6.844;2022-10-10T13:38:57;4.57;;;2.10;;
35496;SDS011;21609;49.298;6.844;2022-10-10T13:41:24;6.55;;;2.58;;
35496;SDS011;21609;49.298;6.844;2022-10-10T13:43:51;3.92;;;2.40;;
35496;SDS011;21609;49.298;6.844;2022-10-10T13:46:28;7.07;;;2.95;;
35496;SDS011;21609;49.298;6.844;2022-10-10T13:48:56;4.22;;;2.65;;
35496;SDS011;21609;49.298;6.844;2022-10-10T13:57:17;3.17;;;2.25;;
35496;SDS011;21609;49.298;6.844;2022-10-10T14:02:26;5.00;;;2.38;;
35496;SDS011;21609;49.298;6.844;2022-10-10T14:04:55;5.95;;;2.60;;
35496;SDS011;21609;49.298;6.844;2022-10-10T14:07:22;11.30;;;3.10;;
35496;SDS011;21609;49.298;6.844;2022-10-10T14:09:57;5.65;;;2.75;;
35496;SDS011;21609;49.298;6.844;2022-10-10T14:12:32;16.40;;;3.17;;
35496;SDS011;21609;49.298;6.844;2022-10-10T14:15:28;9.55;;;2.58;;
35496;SDS011;21609;49.298;6.844;2022-10-10T14:20:40;6.80;;;2.03;;
35496;SDS011;21609;49.298;6.844;2022-10-10T14:23:06;2.97;;;2.30;;
35496;SDS011;21609;49.298;6.844;2022-10-10T14:25:31;2.88;;;2.42;;
35496;SDS011;21609;49.298;6.844;2022-10-10T14:27:57;4.30;;;2.75;;
35496;SDS011;21609;49.298;6.844;2022-10-10T14:30:22;7.78;;;2.30;;
35496;SDS011;21609;49.298;6.844;2022-10-10T14:32:48;11.95;;;2.83;;
35496;SDS011;21609;49.298;6.844;2022-10-10T14:35:14;5.55;;;2.72;;
35496;SDS011;21609;49.298;6.844;2022-10-10T14:37:39;6.57;;;2.35;;
35496;SDS011;21609;49.298;6.844;2022-10-10T14:40:26;9.15;;;2.50;;
35496;SDS011;21609;49.298;6.844;2022-10-10T14:42:53;4.75;;;2.25;;
35496;SDS011;21609;49.298;6.844;2022-10-10T14:45:18;4.78;;;2.78;;
35496;SDS011;21609;49.298;6.844;2022-10-10T14:47:44;6.38;;;2.53;;
35496;SDS011;21609;49.298;6.844;2022-10-10T14:50:20;4.97;;;2.63;;
35496;SDS011;21609;49.298;6.844;2022-10-10T14:52:48;5.60;;;2.55;;
35496;SDS011;21609;49.298;6.844;2022-10-10T14:55:14;2.85;;;1.90;;
35496;SDS011;21609;49.298;6.844;2022-10-10T14:57:40;5.70;;;2.88;;
35496;SDS011;21609;49.298;6.844;2022-10-10T15:00:06;4.15;;;2.22;;
35496;SDS011;21609;49.298;6.844;2022-10-10T15:02:37;3.67;;;2.08;;
35496;SDS011;21609;49.298;6.844;2022-10-10T15:05:03;4.32;;;2.15;;
35496;SDS011;21609;49.298;6.844;2022-10-10T15:07:28;4.20;;;1.92;;
35496;SDS011;21609;49.298;6.844;2022-10-10T15:09:54;2.70;;;1.98;;
35496;SDS011;21609;49.298;6.844;2022-10-10T15:12:20;2.85;;;2.13;;
35496;SDS011;21609;49.298;6.844;2022-10-10T15:14:45;6.47;;;2.03;;
35496;SDS011;21609;49.298;6.844;2022-10-10T15:17:11;2.45;;;2.03;;
35496;SDS011;21609;49.298;6.844;2022-10-10T15:19:36;3.28;;;1.70;;
35496;SDS011;21609;49.298;6.844;2022-10-10T15:22:02;5.50;;;2.15;;
35496;SDS011;21609;49.298;6.844;2022-10-10T15:24:27;2.33;;;1.85;;
35496;SDS011;21609;49.298;6.844;2022-10-10T15:26:53;2.92;;;2.33;;
35496;SDS011;21609;49.298;6.844;2022-10-10T15:29:19;3.97;;;2.25;;
35496;SDS011;21609;49.298;6.844;2022-10-10T15:31:44;4.97;;;3.10;;
35496;SDS011;21609;49.298;6.844;2022-10-10T15:34:10;3.60;;;2.20;;
35496;SDS011;21609;49.298;6.844;2022-10-10T15:36:35;3.22;;;1.80;;
35496;SDS011;21609;49.298;6.844;2022-10-10T15:39:04;7.53;;;2.65;;
35496;SDS011;21609;49.298;6.844;2022-10-10T15:41:30;4.18;;;2.08;;
35496;SDS011;21609;49.298;6.844;2022-10-10T15:43:56;4.32;;;1.88;;
35496;SDS011;21609;49.298;6.844;2022-10-10T15:46:25;2.40;;;1.92;;
35496;SDS011;21609;49.298;6.844;2022-10-10T15:48:51;4.13;;;2.00;;
35496;SDS011;21609;49.298;6.844;2022-10-10T15:51:18;3.38;;;1.95;;
35496;SDS011;21609;49.298;6.844;2022-10-10T15:53:43;3.38;;;2.05;;
35496;SDS011;21609;49.298;6.844;2022-10-10T15:56:10;2.85;;;1.95;;
35496;SDS011;21609;49.298;6.844;2022-10-10T16:01:16;2.90;;;1.85;;
35496;SDS011;21609;49.298;6.844;2022-10-10T16:03:43;1.95;;;1.67;;
35496;SDS011;21609;49.298;6.844;2022-10-10T16:06:11;5.40;;;2.67;;
35496;SDS011;21609;49.298;6.844;2022-10-10T16:08:39;2.35;;;1.75;;
35496;SDS011;21609;49.298;6.844;2022-10-10T16:11:06;3.15;;;1.75;;
35496;SDS011;21609;49.298;6.844;2022-10-10T16:13:33;3.95;;;2.65;;
35496;SDS011;21609;49.298;6.844;2022-10-10T16:16:00;3.28;;;1.67;;
35496;SDS011;21609;49.298;6.844;2022-10-10T16:18:27;2.88;;;2.28;;
35496;SDS011;21609;49.298;6.844;2022-10-10T16:20:53;3.42;;;2.33;;
35496;SDS011;21609;49.298;6.844;2022-10-10T16:23:19;3.70;;;1.98;;
35496;SDS011;21609;49.298;6.844;2022-10-10T16:25:45;2.10;;;1.80;;
35496;SDS011;21609;49.298;6.844;2022-10-10T16:28:10;9.38;;;2.55;;
35496;SDS011;21609;49.298;6.844;2022-10-10T16:30:36;6.43;;;2.38;;
35496;SDS011;21609;49.298;6.844;2022-10-10T16:33:02;2.33;;;1.98;;
35496;SDS011;21609;49.298;6.844;2022-10-10T16:35:27;4.32;;;1.73;;
35496;SDS011;21609;49.298;6.844;2022-10-10T16:37:53;2.80;;;1.85;;
35496;SDS011;21609;49.298;6.844;2022-10-10T16:40:19;2.78;;;2.03;;
35496;SDS011;21609;49.298;6.844;2022-10-10T16:42:44;5.13;;;3.17;;
35496;SDS011;21609;49.298;6.844;2022-10-10T16:45:10;2.72;;;1.95;;
35496;SDS011;21609;49.298;6.844;2022-10-10T16:47:36;3.60;;;2.22;;
35496;SDS011;21609;49.298;6.844;2022-10-10T16:50:02;5.00;;;2.00;;
35496;SDS011;21609;49.298;6.844;2022-10-10T16:52:28;2.92;;;1.75;;
35496;SDS011;21609;49.298;6.844;2022-10-10T16:54:54;1.75;;;1.65;;
35496;SDS011;21609;49.298;6.844;2022-10-10T16:57:20;8.05;;;2.35;;
35496;SDS011;21609;49.298;6.844;2022-10-10T16:59:45;5.80;;;2.70;;
35496;SDS011;21609;49.298;6.844;2022-10-10T17:02:11;3.55;;;2.45;;
35496;SDS011;21609;49.298;6.844;2022-10-10T17:04:37;6.55;;;2.47;;